sensor_id;sensor_type;location;lat;lon;timestamp;P1;durP1;ratioP1;P2;durP2;ratioP2
4057;SDS011;2044;48.692;9.020;2023-01-31T00:00:03;10.93;;;4.20;;
4057;SDS011;2044;48.692;9.020;2023-01-31T00:02:32;7.43;;;3.30;;
4057;SDS011;2044;48.692;9.020;2023-01-31T00:04:59;9.67;;;4.47;;
4057;SDS011;2044;48.692;9.020;2023-01-31T00:07:26;9.13;;;4.90;;
4057;SDS011;2044;48.692;9.020;2023-01-31T00:09:53;9.10;;;4.50;;
4057;SDS011;2044;48.692;9.020;2023-01-31T00:12:19;8.50;;;3.90;;
4057;SDS011;2044;48.692;9.020;2023-01-31T00:14:47;11.10;;;4.10;;
4057;SDS011;2044;48.692;9.020;2023-01-31T00:17:14;10.23;;;4.70;;
4057;SDS011;2044;48.692;9.020;2023-01-31T00:19:41;9.60;;;3.93;;
4057;SDS011;2044;48.692;9.020;2023-01-31T00:22:07;9.13;;;4.00;;
4057;SDS011;2044;48.692;9.020;2023-01-31T00:24:34;8.50;;;3.60;;
4057;SDS011;2044;48.692;9.020;2023-01-31T00:27:01;8.80;;;2.97;;
4057;SDS011;2044;48.692;9.020;2023-01-31T00:29:27;10.73;;;3.20;;
4057;SDS011;2044;48.692;9.020;2023-01-31T00:31:55;5.13;;;3.10;;
4057;SDS011;2044;48.692;9.020;2023-01-31T00:34:22;8.87;;;4.70;;
4057;SDS011;2044;48.692;9.020;2023-01-31T00:36:49;7.97;;;4.13;;
4057;SDS011;2044;48.692;9.020;2023-01-31T00:39:16;7.60;;;3.33;;
4057;SDS011;2044;48.692;9.020;2023-01-31T00:41:42;4.93;;;3.07;;
4057;SDS011;2044;48.692;9.020;2023-01-31T00:44:09;9.27;;;3.50;;
4057;SDS011;2044;48.692;9.020;2023-01-31T00:46:36;5.87;;;3.73;;
4057;SDS011;2044;48.692;9.020;2023-01-31T00:49:04;4.87;;;2.87;;
4057;SDS011;2044;48.692;9.020;2023-01-31T00:51:30;5.87;;;2.90;;
4057;SDS011;2044;48.692;9.020;2023-01-31T00:53:57;8.60;;;4.83;;
4057;SDS011;2044;48.692;9.020;2023-01-31T00:56:24;8.33;;;3.53;;
4057;SDS011;2044;48.692;9.020;2023-01-31T00:58:51;6.60;;;3.77;;
4057;SDS011;2044;48.692;9.020;2023-01-31T01:01:18;9.90;;;4.97;;
4057;SDS011;2044;48.692;9.020;2023-01-31T01:03:47;6.63;;;3.83;;
4057;SDS011;2044;48.692;9.020;2023-01-31T01:06:15;4.80;;;2.50;;
4057;SDS011;2044;48.692;9.020;2023-01-31T01:08:42;6.50;;;3.60;;
4057;SDS011;2044;48.692;9.020;2023-01-31T01:11:11;8.00;;;3.40;;
4057;SDS011;2044;48.692;9.020;2023-01-31T01:13:38;8.73;;;4.63;;
4057;SDS011;2044;48.692;9.020;2023-01-31T01:16:06;7.60;;;3.80;;
4057;SDS011;2044;48.692;9.020;2023-01-31T01:18:34;5.30;;;2.70;;
4057;SDS011;2044;48.692;9.020;2023-01-31T01:21:08;5.23;;;2.70;;
4057;SDS011;2044;48.692;9.020;2023-01-31T01:23:38;8.07;;;3.57;;
4057;SDS011;2044;48.692;9.020;2023-01-31T01:26:07;7.57;;;3.53;;
4057;SDS011;2044;48.692;9.020;2023-01-31T01:28:38;11.70;;;4.17;;
4057;SDS011;2044;48.692;9.020;2023-01-31T01:31:05;6.53;;;3.23;;
4057;SDS011;2044;48.692;9.020;2023-01-31T01:33:33;5.00;;;2.50;;
4057;SDS011;2044;48.692;9.020;2023-01-31T01:36:00;8.47;;;3.40;;
4057;SDS011;2044;48.692;9.020;2023-01-31T01:38:27;6.13;;;3.10;;
4057;SDS011;2044;48.692;9.020;2023-01-31T01:40:55;4.40;;;2.70;;
4057;SDS011;2044;48.692;9.020;2023-01-31T01:43:36;6.10;;;3.53;;
4057;SDS011;2044;48.692;9.020;2023-01-31T01:46:04;4.20;;;2.70;;
4057;SDS011;2044;48.692;9.020;2023-01-31T01:48:32;6.10;;;3.67;;
4057;SDS011;2044;48.692;9.020;2023-01-31T01:50:58;7.10;;;4.00;;
4057;SDS011;2044;48.692;9.020;2023-01-31T01:53:28;6.07;;;2.97;;
4057;SDS011;2044;48.692;9.020;2023-01-31T01:55:57;15.60;;;3.70;;
4057;SDS011;2044;48.692;9.020;2023-01-31T01:58:27;11.10;;;4.30;;
4057;SDS011;2044;48.692;9.020;2023-01-31T02:00:57;7.33;;;3.30;;
4057;SDS011;2044;48.692;9.020;2023-01-31T02:03:24;9.40;;;3.30;;
4057;SDS011;2044;48.692;9.020;2023-01-31T02:05:53;8.60;;;3.70;;
4057;SDS011;2044;48.692;9.020;2023-01-31T02:08:22;6.53;;;3.00;;
4057;SDS011;2044;48.692;9.020;2023-01-31T02:10:52;9.97;;;4.30;;
4057;SDS011;2044;48.692;9.020;2023-01-31T02:13:23;5.97;;;2.70;;
4057;SDS011;2044;48.692;9.020;2023-01-31T02:15:51;5.50;;;3.40;;
4057;SDS011;2044;48.692;9.020;2023-01-31T02:18:18;7.80;;;3.80;;
4057;SDS011;2044;48.692;9.020;2023-01-31T02:20:57;7.27;;;3.97;;
4057;SDS011;2044;48.692;9.020;2023-01-31T02:27:03;8.97;;;4.50;;
4057;SDS011;2044;48.692;9.020;2023-01-31T02:29:49;6.33;;;3.87;;
4057;SDS011;2044;48.692;9.020;2023-01-31T02:32:42;7.83;;;2.90;;
4057;SDS011;2044;48.692;9.020;2023-01-31T02:35:19;6.57;;;3.47;;
4057;SDS011;2044;48.692;9.020;2023-01-31T02:37:56;4.23;;;2.80;;
4057;SDS011;2044;48.692;9.020;2023-01-31T02:40:34;6.33;;;2.97;;
4057;SDS011;2044;48.692;9.020;2023-01-31T02:43:08;11.40;;;4.20;;
4057;SDS011;2044;48.692;9.020;2023-01-31T02:45:41;10.40;;;3.90;;
4057;SDS011;2044;48.692;9.020;2023-01-31T02:48:17;8.73;;;4.37;;
4057;SDS011;2044;48.692;9.020;2023-01-31T02:50:56;9.10;;;4.20;;
4057;SDS011;2044;48.692;9.020;2023-01-31T02:53:28;11.20;;;4.20;;
4057;SDS011;2044;48.692;9.020;2023-01-31T02:55:59;10.70;;;4.07;;
4057;SDS011;2044;48.692;9.020;2023-01-31T02:58:39;12.10;;;3.90;;
4057;SDS011;2044;48.692;9.020;2023-01-31T03:01:09;11.13;;;4.47;;
4057;SDS011;2044;48.692;9.020;2023-01-31T03:03:41;12.70;;;4.00;;
4057;SDS011;2044;48.692;9.020;2023-01-31T03:09:18;7.20;;;4.50;;
4057;SDS011;2044;48.692;9.020;2023-01-31T03:11:55;5.40;;;3.13;;
4057;SDS011;2044;48.692;9.020;2023-01-31T03:14:29;6.73;;;3.37;;
4057;SDS011;2044;48.692;9.020;2023-01-31T03:17:00;5.43;;;3.27;;
4057;SDS011;2044;48.692;9.020;2023-01-31T03:19:54;11.50;;;4.57;;
4057;SDS011;2044;48.692;9.020;2023-01-31T03:22:27;10.83;;;4.17;;
4057;SDS011;2044;48.692;9.020;2023-01-31T03:24:58;6.20;;;4.73;;
4057;SDS011;2044;48.692;9.020;2023-01-31T03:27:26;15.13;;;4.77;;
4057;SDS011;2044;48.692;9.020;2023-01-31T03:29:55;9.70;;;4.00;;
4057;SDS011;2044;48.692;9.020;2023-01-31T03:32:26;7.70;;;3.47;;
4057;SDS011;2044;48.692;9.020;2023-01-31T03:34:57;15.80;;;3.83;;
4057;SDS011;2044;48.692;9.020;2023-01-31T03:37:25;9.37;;;4.67;;
4057;SDS011;2044;48.692;9.020;2023-01-31T03:39:58;11.23;;;4.00;;
4057;SDS011;2044;48.692;9.020;2023-01-31T03:42:30;10.23;;;3.40;;
4057;SDS011;2044;48.692;9.020;2023-01-31T03:45:05;6.13;;;3.23;;
4057;SDS011;2044;48.692;9.020;2023-01-31T03:47:37;8.73;;;3.83;;
4057;SDS011;2044;48.692;9.020;2023-01-31T03:50:09;4.13;;;3.00;;
4057;SDS011;2044;48.692;9.020;2023-01-31T03:52:41;8.03;;;4.07;;
4057;SDS011;2044;48.692;9.020;2023-01-31T03:55:14;12.37;;;4.10;;
4057;SDS011;2044;48.692;9.020;2023-01-31T03:57:43;8.77;;;4.60;;
4057;SDS011;2044;48.692;9.020;2023-01-31T04:00:14;9.33;;;4.57;;
4057;SDS011;2044;48.692;9.020;2023-01-31T04:02:43;11.00;;;4.50;;
4057;SDS011;2044;48.692;9.020;2023-01-31T04:05:15;12.33;;;4.47;;
4057;SDS011;2044;48.692;9.020;2023-01-31T04:07:45;9.20;;;4.30;;
4057;SDS011;2044;48.692;9.020;2023-01-31T04:10:13;4.73;;;2.97;;
4057;SDS011;2044;48.692;9.020;2023-01-31T04:12:42;13.13;;;4.47;;
4057;SDS011;2044;48.692;9.020;2023-01-31T04:15:10;10.73;;;3.97;;
4057;SDS011;2044;48.692;9.020;2023-01-31T04:17:37;12.30;;;4.30;;
4057;SDS011;2044;48.692;9.020;2023-01-31T04:20:04;9.97;;;4.60;;
4057;SDS011;2044;48.692;9.020;2023-01-31T04:22:33;12.60;;;5.10;;
4057;SDS011;2044;48.692;9.020;2023-01-31T04:25:00;9.67;;;4.50;;
4057;SDS011;2044;48.692;9.020;2023-01-31T04:27:26;11.30;;;4.80;;
4057;SDS011;2044;48.692;9.020;2023-01-31T04:29:53;8.57;;;4.80;;
4057;SDS011;2044;48.692;9.020;2023-01-31T04:32:20;8.17;;;3.90;;
4057;SDS011;2044;48.692;9.020;2023-01-31T04:34:47;8.73;;;4.80;;
4057;SDS011;2044;48.692;9.020;2023-01-31T04:37:13;7.10;;;3.83;;
4057;SDS011;2044;48.692;9.020;2023-01-31T04:39:41;9.37;;;4.60;;
4057;SDS011;2044;48.692;9.020;2023-01-31T04:42:08;6.83;;;4.30;;
4057;SDS011;2044;48.692;9.020;2023-01-31T04:44:35;7.53;;;4.27;;
4057;SDS011;2044;48.692;9.020;2023-01-31T04:47:01;8.97;;;4.23;;
4057;SDS011;2044;48.692;9.020;2023-01-31T04:49:28;8.27;;;4.43;;
4057;SDS011;2044;48.692;9.020;2023-01-31T04:51:55;8.30;;;4.00;;
4057;SDS011;2044;48.692;9.020;2023-01-31T04:54:21;7.43;;;4.13;;
4057;SDS011;2044;48.692;9.020;2023-01-31T04:56:49;5.47;;;3.63;;
4057;SDS011;2044;48.692;9.020;2023-01-31T04:59:16;10.47;;;4.90;;
4057;SDS011;2044;48.692;9.020;2023-01-31T05:01:43;12.13;;;5.00;;
4057;SDS011;2044;48.692;9.020;2023-01-31T05:04:09;13.00;;;6.10;;
4057;SDS011;2044;48.692;9.020;2023-01-31T05:06:37;8.50;;;4.50;;
4057;SDS011;2044;48.692;9.020;2023-01-31T05:09:03;13.13;;;6.17;;
4057;SDS011;2044;48.692;9.020;2023-01-31T05:11:31;12.03;;;6.93;;
4057;SDS011;2044;48.692;9.020;2023-01-31T05:13:59;15.27;;;6.23;;
4057;SDS011;2044;48.692;9.020;2023-01-31T05:16:26;6.90;;;4.53;;
4057;SDS011;2044;48.692;9.020;2023-01-31T05:18:53;12.60;;;7.50;;
4057;SDS011;2044;48.692;9.020;2023-01-31T05:21:20;16.60;;;9.23;;
4057;SDS011;2044;48.692;9.020;2023-01-31T05:23:46;9.40;;;4.97;;
4057;SDS011;2044;48.692;9.020;2023-01-31T05:26:13;18.70;;;9.73;;
4057;SDS011;2044;48.692;9.020;2023-01-31T05:28:40;28.90;;;14.83;;
4057;SDS011;2044;48.692;9.020;2023-01-31T05:31:08;21.37;;;10.73;;
4057;SDS011;2044;48.692;9.020;2023-01-31T05:33:37;24.27;;;15.40;;
4057;SDS011;2044;48.692;9.020;2023-01-31T05:36:04;13.30;;;7.40;;
4057;SDS011;2044;48.692;9.020;2023-01-31T05:38:31;14.83;;;6.90;;
4057;SDS011;2044;48.692;9.020;2023-01-31T05:40:57;10.53;;;5.53;;
4057;SDS011;2044;48.692;9.020;2023-01-31T05:43:24;14.83;;;5.23;;
4057;SDS011;2044;48.692;9.020;2023-01-31T05:45:51;10.13;;;4.70;;
4057;SDS011;2044;48.692;9.020;2023-01-31T05:48:19;11.67;;;4.87;;
4057;SDS011;2044;48.692;9.020;2023-01-31T05:50:47;9.40;;;5.13;;
4057;SDS011;2044;48.692;9.020;2023-01-31T05:53:14;6.73;;;4.37;;
4057;SDS011;2044;48.692;9.020;2023-01-31T05:55:42;10.73;;;5.60;;
4057;SDS011;2044;48.692;9.020;2023-01-31T05:58:09;12.43;;;5.63;;
4057;SDS011;2044;48.692;9.020;2023-01-31T06:00:36;9.33;;;5.10;;
4057;SDS011;2044;48.692;9.020;2023-01-31T06:03:03;10.80;;;5.20;;
4057;SDS011;2044;48.692;9.020;2023-01-31T06:05:31;8.90;;;4.27;;
4057;SDS011;2044;48.692;9.020;2023-01-31T06:07:57;8.83;;;4.63;;
4057;SDS011;2044;48.692;9.020;2023-01-31T06:10:24;9.10;;;5.07;;
4057;SDS011;2044;48.692;9.020;2023-01-31T06:12:51;11.00;;;4.70;;
4057;SDS011;2044;48.692;9.020;2023-01-31T06:15:18;5.93;;;4.40;;
4057;SDS011;2044;48.692;9.020;2023-01-31T06:17:44;11.80;;;4.93;;
4057;SDS011;2044;48.692;9.020;2023-01-31T06:20:11;9.33;;;5.20;;
4057;SDS011;2044;48.692;9.020;2023-01-31T06:22:39;11.10;;;5.40;;
4057;SDS011;2044;48.692;9.020;2023-01-31T06:25:07;10.40;;;5.00;;
4057;SDS011;2044;48.692;9.020;2023-01-31T06:27:34;11.13;;;4.87;;
4057;SDS011;2044;48.692;9.020;2023-01-31T06:30:01;14.10;;;5.90;;
4057;SDS011;2044;48.692;9.020;2023-01-31T06:32:27;12.37;;;6.10;;
4057;SDS011;2044;48.692;9.020;2023-01-31T06:34:54;6.90;;;3.87;;
4057;SDS011;2044;48.692;9.020;2023-01-31T06:37:21;10.77;;;5.10;;
4057;SDS011;2044;48.692;9.020;2023-01-31T06:39:49;10.47;;;4.40;;
4057;SDS011;2044;48.692;9.020;2023-01-31T06:42:15;12.13;;;5.60;;
4057;SDS011;2044;48.692;9.020;2023-01-31T06:44:42;13.17;;;6.20;;
4057;SDS011;2044;48.692;9.020;2023-01-31T06:47:09;12.10;;;6.37;;
4057;SDS011;2044;48.692;9.020;2023-01-31T06:49:36;7.60;;;4.60;;
4057;SDS011;2044;48.692;9.020;2023-01-31T06:52:03;14.80;;;5.60;;
4057;SDS011;2044;48.692;9.020;2023-01-31T06:54:30;17.40;;;7.70;;
4057;SDS011;2044;48.692;9.020;2023-01-31T06:56:58;12.77;;;6.40;;
4057;SDS011;2044;48.692;9.020;2023-01-31T06:59:25;14.17;;;6.23;;
4057;SDS011;2044;48.692;9.020;2023-01-31T07:01:52;11.43;;;4.57;;
4057;SDS011;2044;48.692;9.020;2023-01-31T07:04:19;10.70;;;5.47;;
4057;SDS011;2044;48.692;9.020;2023-01-31T07:06:45;12.67;;;6.50;;
4057;SDS011;2044;48.692;9.020;2023-01-31T07:09:12;8.77;;;4.63;;
4057;SDS011;2044;48.692;9.020;2023-01-31T07:11:39;15.63;;;6.73;;
4057;SDS011;2044;48.692;9.020;2023-01-31T07:14:07;12.00;;;4.93;;
4057;SDS011;2044;48.692;9.020;2023-01-31T07:16:34;6.63;;;4.70;;
4057;SDS011;2044;48.692;9.020;2023-01-31T07:19:02;12.57;;;5.20;;
4057;SDS011;2044;48.692;9.020;2023-01-31T07:21:29;10.87;;;6.43;;
4057;SDS011;2044;48.692;9.020;2023-01-31T07:23:57;12.47;;;5.53;;
4057;SDS011;2044;48.692;9.020;2023-01-31T07:26:24;10.37;;;6.23;;
4057;SDS011;2044;48.692;9.020;2023-01-31T07:28:50;11.17;;;5.50;;
4057;SDS011;2044;48.692;9.020;2023-01-31T07:31:19;10.93;;;5.17;;
4057;SDS011;2044;48.692;9.020;2023-01-31T07:33:45;12.13;;;7.07;;
4057;SDS011;2044;48.692;9.020;2023-01-31T07:36:13;10.47;;;5.07;;
4057;SDS011;2044;48.692;9.020;2023-01-31T07:38:43;8.37;;;4.57;;
4057;SDS011;2044;48.692;9.020;2023-01-31T07:41:10;13.23;;;5.83;;
4057;SDS011;2044;48.692;9.020;2023-01-31T07:43:37;13.43;;;5.57;;
4057;SDS011;2044;48.692;9.020;2023-01-31T07:46:04;10.20;;;4.30;;
4057;SDS011;2044;48.692;9.020;2023-01-31T07:48:35;13.07;;;4.90;;
4057;SDS011;2044;48.692;9.020;2023-01-31T07:51:02;15.67;;;6.70;;
4057;SDS011;2044;48.692;9.020;2023-01-31T07:53:30;18.40;;;6.90;;
4057;SDS011;2044;48.692;9.020;2023-01-31T07:56:04;15.13;;;6.30;;
4057;SDS011;2044;48.692;9.020;2023-01-31T07:58:32;15.47;;;6.70;;
4057;SDS011;2044;48.692;9.020;2023-01-31T08:01:00;20.10;;;7.30;;
4057;SDS011;2044;48.692;9.020;2023-01-31T08:03:46;12.80;;;5.10;;
4057;SDS011;2044;48.692;9.020;2023-01-31T08:06:13;10.60;;;5.40;;
4057;SDS011;2044;48.692;9.020;2023-01-31T08:08:41;11.43;;;5.93;;
4057;SDS011;2044;48.692;9.020;2023-01-31T08:11:08;15.87;;;6.17;;
4057;SDS011;2044;48.692;9.020;2023-01-31T08:13:35;18.90;;;6.10;;
4057;SDS011;2044;48.692;9.020;2023-01-31T08:16:03;10.90;;;5.30;;
4057;SDS011;2044;48.692;9.020;2023-01-31T08:18:33;10.87;;;4.43;;
4057;SDS011;2044;48.692;9.020;2023-01-31T08:21:02;9.87;;;5.20;;
4057;SDS011;2044;48.692;9.020;2023-01-31T08:23:29;12.47;;;5.30;;
4057;SDS011;2044;48.692;9.020;2023-01-31T08:25:59;12.27;;;5.83;;
4057;SDS011;2044;48.692;9.020;2023-01-31T08:28:27;12.90;;;5.70;;
4057;SDS011;2044;48.692;9.020;2023-01-31T08:30:54;7.53;;;4.50;;
4057;SDS011;2044;48.692;9.020;2023-01-31T08:33:21;12.17;;;5.40;;
4057;SDS011;2044;48.692;9.020;2023-01-31T08:35:48;9.90;;;4.90;;
4057;SDS011;2044;48.692;9.020;2023-01-31T08:38:16;14.20;;;5.40;;
4057;SDS011;2044;48.692;9.020;2023-01-31T08:40:43;7.97;;;4.90;;
4057;SDS011;2044;48.692;9.020;2023-01-31T08:43:10;10.50;;;4.83;;
4057;SDS011;2044;48.692;9.020;2023-01-31T08:45:36;15.13;;;4.67;;
4057;SDS011;2044;48.692;9.020;2023-01-31T08:48:03;5.60;;;4.00;;
4057;SDS011;2044;48.692;9.020;2023-01-31T08:50:31;13.90;;;5.07;;
4057;SDS011;2044;48.692;9.020;2023-01-31T08:52:58;4.87;;;3.77;;
4057;SDS011;2044;48.692;9.020;2023-01-31T08:55:28;10.00;;;4.40;;
4057;SDS011;2044;48.692;9.020;2023-01-31T08:57:56;6.00;;;4.13;;
4057;SDS011;2044;48.692;9.020;2023-01-31T09:00:23;7.43;;;4.40;;
4057;SDS011;2044;48.692;9.020;2023-01-31T09:02:50;3.50;;;3.20;;
4057;SDS011;2044;48.692;9.020;2023-01-31T09:05:17;9.00;;;3.80;;
4057;SDS011;2044;48.692;9.020;2023-01-31T09:07:44;6.10;;;4.07;;
4057;SDS011;2044;48.692;9.020;2023-01-31T09:10:11;7.23;;;4.53;;
4057;SDS011;2044;48.692;9.020;2023-01-31T09:12:39;6.73;;;3.20;;
4057;SDS011;2044;48.692;9.020;2023-01-31T09:15:06;14.83;;;4.80;;
4057;SDS011;2044;48.692;9.020;2023-01-31T09:17:33;7.33;;;4.50;;
4057;SDS011;2044;48.692;9.020;2023-01-31T09:20:00;4.10;;;3.30;;
4057;SDS011;2044;48.692;9.020;2023-01-31T09:22:30;4.67;;;2.87;;
4057;SDS011;2044;48.692;9.020;2023-01-31T09:24:57;7.10;;;4.60;;
4057;SDS011;2044;48.692;9.020;2023-01-31T09:27:25;5.73;;;3.47;;
4057;SDS011;2044;48.692;9.020;2023-01-31T09:29:54;6.23;;;2.67;;
4057;SDS011;2044;48.692;9.020;2023-01-31T09:32:21;7.37;;;4.47;;
4057;SDS011;2044;48.692;9.020;2023-01-31T09:34:48;12.97;;;5.00;;
4057;SDS011;2044;48.692;9.020;2023-01-31T09:37:15;6.70;;;3.67;;
4057;SDS011;2044;48.692;9.020;2023-01-31T09:39:42;8.20;;;4.20;;
4057;SDS011;2044;48.692;9.020;2023-01-31T09:42:12;7.87;;;3.40;;
4057;SDS011;2044;48.692;9.020;2023-01-31T09:44:44;10.00;;;3.80;;
4057;SDS011;2044;48.692;9.020;2023-01-31T09:47:19;5.90;;;4.47;;
4057;SDS011;2044;48.692;9.020;2023-01-31T09:49:53;4.87;;;4.07;;
4057;SDS011;2044;48.692;9.020;2023-01-31T09:52:25;8.03;;;3.90;;
4057;SDS011;2044;48.692;9.020;2023-01-31T09:54:53;5.03;;;2.80;;
4057;SDS011;2044;48.692;9.020;2023-01-31T09:57:23;4.40;;;3.10;;
4057;SDS011;2044;48.692;9.020;2023-01-31T09:59:59;4.03;;;3.30;;
4057;SDS011;2044;48.692;9.020;2023-01-31T10:02:41;3.60;;;3.17;;
4057;SDS011;2044;48.692;9.020;2023-01-31T10:05:27;3.97;;;2.60;;
4057;SDS011;2044;48.692;9.020;2023-01-31T10:08:04;7.63;;;4.43;;
4057;SDS011;2044;48.692;9.020;2023-01-31T10:10:38;3.93;;;2.63;;
4057;SDS011;2044;48.692;9.020;2023-01-31T10:13:11;3.90;;;2.70;;
4057;SDS011;2044;48.692;9.020;2023-01-31T10:15:44;3.07;;;1.63;;
4057;SDS011;2044;48.692;9.020;2023-01-31T10:18:16;6.03;;;2.33;;
4057;SDS011;2044;48.692;9.020;2023-01-31T10:20:48;11.20;;;3.60;;
4057;SDS011;2044;48.692;9.020;2023-01-31T10:23:20;8.17;;;2.90;;
4057;SDS011;2044;48.692;9.020;2023-01-31T10:25:51;5.77;;;3.17;;
4057;SDS011;2044;48.692;9.020;2023-01-31T10:28:23;7.10;;;3.30;;
4057;SDS011;2044;48.692;9.020;2023-01-31T10:30:55;3.10;;;2.47;;
4057;SDS011;2044;48.692;9.020;2023-01-31T10:33:27;6.27;;;3.40;;
4057;SDS011;2044;48.692;9.020;2023-01-31T10:36:02;5.33;;;3.03;;
4057;SDS011;2044;48.692;9.020;2023-01-31T10:38:37;4.37;;;3.07;;
4057;SDS011;2044;48.692;9.020;2023-01-31T10:41:12;8.33;;;3.97;;
4057;SDS011;2044;48.692;9.020;2023-01-31T10:43:43;6.40;;;4.37;;
4057;SDS011;2044;48.692;9.020;2023-01-31T10:46:14;5.07;;;4.10;;
4057;SDS011;2044;48.692;9.020;2023-01-31T10:48:42;5.57;;;4.10;;
4057;SDS011;2044;48.692;9.020;2023-01-31T10:51:16;6.97;;;4.67;;
4057;SDS011;2044;48.692;9.020;2023-01-31T10:53:56;4.97;;;4.57;;
4057;SDS011;2044;48.692;9.020;2023-01-31T10:56:37;6.70;;;4.90;;
4057;SDS011;2044;48.692;9.020;2023-01-31T10:59:10;6.70;;;4.17;;
4057;SDS011;2044;48.692;9.020;2023-01-31T11:01:43;4.60;;;4.10;;
4057;SDS011;2044;48.692;9.020;2023-01-31T11:04:23;6.30;;;4.20;;
4057;SDS011;2044;48.692;9.020;2023-01-31T11:06:53;4.77;;;3.33;;
4057;SDS011;2044;48.692;9.020;2023-01-31T11:09:20;5.83;;;3.73;;
4057;SDS011;2044;48.692;9.020;2023-01-31T11:11:52;7.60;;;4.13;;
4057;SDS011;2044;48.692;9.020;2023-01-31T11:14:21;5.43;;;3.77;;
4057;SDS011;2044;48.692;9.020;2023-01-31T11:16:48;5.30;;;4.00;;
4057;SDS011;2044;48.692;9.020;2023-01-31T11:19:25;5.33;;;3.67;;
4057;SDS011;2044;48.692;9.020;2023-01-31T11:21:57;7.97;;;4.50;;
4057;SDS011;2044;48.692;9.020;2023-01-31T11:24:25;8.83;;;3.70;;
4057;SDS011;2044;48.692;9.020;2023-01-31T11:26:55;5.40;;;4.50;;
4057;SDS011;2044;48.692;9.020;2023-01-31T11:29:26;5.83;;;4.03;;
4057;SDS011;2044;48.692;9.020;2023-01-31T11:31:54;6.00;;;4.77;;
4057;SDS011;2044;48.692;9.020;2023-01-31T11:34:25;5.77;;;4.03;;
4057;SDS011;2044;48.692;9.020;2023-01-31T11:37:01;7.37;;;5.10;;
4057;SDS011;2044;48.692;9.020;2023-01-31T11:39:31;6.90;;;4.73;;
4057;SDS011;2044;48.692;9.020;2023-01-31T11:42:05;7.00;;;5.30;;
4057;SDS011;2044;48.692;9.020;2023-01-31T11:44:36;10.20;;;5.63;;
4057;SDS011;2044;48.692;9.020;2023-01-31T11:47:20;6.20;;;5.70;;
4057;SDS011;2044;48.692;9.020;2023-01-31T11:49:52;4.73;;;4.33;;
4057;SDS011;2044;48.692;9.020;2023-01-31T11:52:20;5.80;;;5.30;;
4057;SDS011;2044;48.692;9.020;2023-01-31T11:54:53;4.70;;;4.30;;
4057;SDS011;2044;48.692;9.020;2023-01-31T11:57:23;5.33;;;4.93;;
4057;SDS011;2044;48.692;9.020;2023-01-31T11:59:52;6.83;;;5.50;;
4057;SDS011;2044;48.692;9.020;2023-01-31T12:02:25;6.07;;;5.50;;
4057;SDS011;2044;48.692;9.020;2023-01-31T12:04:58;4.70;;;4.30;;
4057;SDS011;2044;48.692;9.020;2023-01-31T12:07:26;7.10;;;6.30;;
4057;SDS011;2044;48.692;9.020;2023-01-31T12:09:55;5.23;;;4.07;;
4057;SDS011;2044;48.692;9.020;2023-01-31T12:12:23;5.63;;;4.90;;
4057;SDS011;2044;48.692;9.020;2023-01-31T12:14:57;4.20;;;3.80;;
4057;SDS011;2044;48.692;9.020;2023-01-31T12:17:26;3.90;;;3.60;;
4057;SDS011;2044;48.692;9.020;2023-01-31T12:20:06;4.20;;;3.80;;
4057;SDS011;2044;48.692;9.020;2023-01-31T12:22:45;4.40;;;4.10;;
4057;SDS011;2044;48.692;9.020;2023-01-31T12:25:21;6.60;;;3.70;;
4057;SDS011;2044;48.692;9.020;2023-01-31T12:27:57;6.00;;;4.03;;
4057;SDS011;2044;48.692;9.020;2023-01-31T12:30:38;4.77;;;4.20;;
4057;SDS011;2044;48.692;9.020;2023-01-31T12:33:24;7.77;;;3.63;;
4057;SDS011;2044;48.692;9.020;2023-01-31T12:36:15;4.70;;;3.23;;
4057;SDS011;2044;48.692;9.020;2023-01-31T12:39:02;3.57;;;3.27;;
4057;SDS011;2044;48.692;9.020;2023-01-31T12:41:44;3.53;;;3.23;;
4057;SDS011;2044;48.692;9.020;2023-01-31T12:44:29;3.33;;;3.10;;
4057;SDS011;2044;48.692;9.020;2023-01-31T12:47:19;4.73;;;3.10;;
4057;SDS011;2044;48.692;9.020;2023-01-31T12:50:09;4.63;;;4.10;;
4057;SDS011;2044;48.692;9.020;2023-01-31T12:52:48;8.50;;;4.37;;
4057;SDS011;2044;48.692;9.020;2023-01-31T12:55:25;8.17;;;3.07;;
4057;SDS011;2044;48.692;9.020;2023-01-31T12:58:04;3.70;;;3.27;;
4057;SDS011;2044;48.692;9.020;2023-01-31T13:00:43;3.73;;;3.33;;
4057;SDS011;2044;48.692;9.020;2023-01-31T13:03:28;2.93;;;2.73;;
4057;SDS011;2044;48.692;9.020;2023-01-31T13:06:03;4.27;;;2.87;;
4057;SDS011;2044;48.692;9.020;2023-01-31T13:08:41;3.90;;;2.70;;
4057;SDS011;2044;48.692;9.020;2023-01-31T13:11:10;4.10;;;3.03;;
4057;SDS011;2044;48.692;9.020;2023-01-31T13:13:42;6.60;;;3.43;;
4057;SDS011;2044;48.692;9.020;2023-01-31T13:16:15;4.80;;;2.93;;
4057;SDS011;2044;48.692;9.020;2023-01-31T13:18:45;4.23;;;2.60;;
4057;SDS011;2044;48.692;9.020;2023-01-31T13:21:15;5.47;;;2.70;;
4057;SDS011;2044;48.692;9.020;2023-01-31T13:23:46;10.03;;;3.33;;
4057;SDS011;2044;48.692;9.020;2023-01-31T13:26:17;4.23;;;2.80;;
4057;SDS011;2044;48.692;9.020;2023-01-31T13:28:47;3.60;;;2.93;;
4057;SDS011;2044;48.692;9.020;2023-01-31T13:31:18;8.53;;;2.90;;
4057;SDS011;2044;48.692;9.020;2023-01-31T13:33:49;3.23;;;2.93;;
4057;SDS011;2044;48.692;9.020;2023-01-31T13:36:20;3.50;;;2.27;;
4057;SDS011;2044;48.692;9.020;2023-01-31T13:38:51;2.90;;;2.70;;
4057;SDS011;2044;48.692;9.020;2023-01-31T13:41:21;5.83;;;3.90;;
4057;SDS011;2044;48.692;9.020;2023-01-31T13:43:52;7.53;;;3.27;;
4057;SDS011;2044;48.692;9.020;2023-01-31T13:46:20;5.97;;;3.20;;
4057;SDS011;2044;48.692;9.020;2023-01-31T13:48:52;10.13;;;4.80;;
4057;SDS011;2044;48.692;9.020;2023-01-31T13:51:24;5.50;;;2.87;;
4057;SDS011;2044;48.692;9.020;2023-01-31T13:53:58;3.87;;;2.43;;
4057;SDS011;2044;48.692;9.020;2023-01-31T13:56:31;4.27;;;3.17;;
4057;SDS011;2044;48.692;9.020;2023-01-31T13:59:00;2.77;;;2.50;;
4057;SDS011;2044;48.692;9.020;2023-01-31T14:01:27;3.33;;;2.70;;
4057;SDS011;2044;48.692;9.020;2023-01-31T14:06:55;7.30;;;2.53;;
4057;SDS011;2044;48.692;9.020;2023-01-31T14:09:41;2.93;;;2.63;;
4057;SDS011;2044;48.692;9.020;2023-01-31T14:12:30;3.97;;;2.83;;
4057;SDS011;2044;48.692;9.020;2023-01-31T14:14:58;3.73;;;3.33;;
4057;SDS011;2044;48.692;9.020;2023-01-31T14:20:24;2.73;;;2.17;;
4057;SDS011;2044;48.692;9.020;2023-01-31T14:25:55;5.67;;;3.13;;
4057;SDS011;2044;48.692;9.020;2023-01-31T14:28:22;5.27;;;3.03;;
4057;SDS011;2044;48.692;9.020;2023-01-31T14:30:49;2.07;;;1.87;;
4057;SDS011;2044;48.692;9.020;2023-01-31T14:33:23;5.03;;;3.00;;
4057;SDS011;2044;48.692;9.020;2023-01-31T14:36:03;5.17;;;3.10;;
4057;SDS011;2044;48.692;9.020;2023-01-31T14:39:03;6.40;;;3.27;;
4057;SDS011;2044;48.692;9.020;2023-01-31T14:42:14;5.87;;;3.70;;
4057;SDS011;2044;48.692;9.020;2023-01-31T14:44:55;4.07;;;3.30;;
4057;SDS011;2044;48.692;9.020;2023-01-31T14:47:41;5.70;;;2.90;;
4057;SDS011;2044;48.692;9.020;2023-01-31T14:50:32;4.83;;;3.20;;
4057;SDS011;2044;48.692;9.020;2023-01-31T14:53:17;2.83;;;2.50;;
4057;SDS011;2044;48.692;9.020;2023-01-31T14:56:07;3.60;;;3.30;;
4057;SDS011;2044;48.692;9.020;2023-01-31T14:58:45;6.37;;;2.87;;
4057;SDS011;2044;48.692;9.020;2023-01-31T15:01:12;4.87;;;2.90;;
4057;SDS011;2044;48.692;9.020;2023-01-31T15:03:47;2.97;;;2.50;;
4057;SDS011;2044;48.692;9.020;2023-01-31T15:06:16;5.47;;;2.83;;
4057;SDS011;2044;48.692;9.020;2023-01-31T15:08:50;2.80;;;2.30;;
4057;SDS011;2044;48.692;9.020;2023-01-31T15:11:53;5.83;;;2.70;;
4057;SDS011;2044;48.692;9.020;2023-01-31T15:14:25;4.70;;;2.70;;
4057;SDS011;2044;48.692;9.020;2023-01-31T15:17:00;2.50;;;2.20;;
4057;SDS011;2044;48.692;9.020;2023-01-31T15:19:31;10.03;;;3.13;;
4057;SDS011;2044;48.692;9.020;2023-01-31T15:22:03;5.17;;;3.10;;
4057;SDS011;2044;48.692;9.020;2023-01-31T15:24:34;5.50;;;3.30;;
4057;SDS011;2044;48.692;9.020;2023-01-31T15:27:06;4.90;;;2.80;;
4057;SDS011;2044;48.692;9.020;2023-01-31T15:29:43;3.30;;;2.60;;
4057;SDS011;2044;48.692;9.020;2023-01-31T15:32:23;4.87;;;2.67;;
4057;SDS011;2044;48.692;9.020;2023-01-31T15:34:54;9.97;;;3.90;;
4057;SDS011;2044;48.692;9.020;2023-01-31T15:37:24;3.00;;;2.20;;
4057;SDS011;2044;48.692;9.020;2023-01-31T15:39:57;3.23;;;2.60;;
4057;SDS011;2044;48.692;9.020;2023-01-31T15:42:28;6.00;;;2.90;;
4057;SDS011;2044;48.692;9.020;2023-01-31T15:47:53;2.83;;;2.20;;
4057;SDS011;2044;48.692;9.020;2023-01-31T15:50:21;5.13;;;2.47;;